sensor_id;sensor_type;location;lat;lon;timestamp;pressure;altitude;pressure_sealevel;temperature;humidity
46223;BME280;31943;51.410;7.564;2022-10-03T00:00:19;101130.59;;;11.39;66.98
46223;BME280;31943;51.410;7.564;2022-10-03T00:05:54;101139.22;;;11.37;66.92
46223;BME280;31943;51.410;7.564;2022-10-03T00:08:36;101137.44;;;11.34;67.04
46223;BME280;31943;51.410;7.564;2022-10-03T00:11:18;101140.88;;;11.32;67.09
46223;BME280;31943;51.410;7.564;2022-10-03T00:13:50;101135.53;;;11.25;66.83
46223;BME280;31943;51.410;7.564;2022-10-03T00:16:26;101140.72;;;11.24;67.01
46223;BME280;31943;51.410;7.564;2022-10-03T00:19:05;101141.50;;;11.20;66.72
46223;BME280;31943;51.410;7.564;2022-10-03T00:21:44;101144.94;;;11.17;66.78
46223;BME280;31943;51.410;7.564;2022-10-03T00:24:25;101143.97;;;11.14;66.86
46223;BME280;31943;51.410;7.564;2022-10-03T00:26:57;101148.25;;;11.10;66.78
46223;BME280;31943;51.410;7.564;2022-10-03T00:29:35;101156.00;;;11.05;66.63
46223;BME280;31943;51.410;7.564;2022-10-03T00:32:13;101151.66;;;11.06;66.99
46223;BME280;31943;51.410;7.564;2022-10-03T00:34:55;101159.53;;;11.07;67.09
46223;BME280;31943;51.410;7.564;2022-10-03T00:37:30;101165.59;;;11.06;66.96
46223;BME280;31943;51.410;7.564;2022-10-03T00:40:13;101162.88;;;11.03;67.16
46223;BME280;31943;51.410;7.564;2022-10-03T00:43:01;101169.81;;;11.01;67.03
46223;BME280;31943;51.410;7.564;2022-10-03T00:45:48;101166.25;;;10.98;67.02
46223;BME280;31943;51.410;7.564;2022-10-03T00:51:26;101169.72;;;10.97;66.93
46223;BME280;31943;51.410;7.564;2022-10-03T00:54:07;101168.84;;;10.96;67.13
46223;BME280;31943;51.410;7.564;2022-10-03T00:56:50;101173.19;;;10.97;66.96
46223;BME280;31943;51.410;7.564;2022-10-03T00:59:32;101175.81;;;10.97;67.39
46223;BME280;31943;51.410;7.564;2022-10-03T01:02:21;101190.69;;;11.00;67.54
46223;BME280;31943;51.410;7.564;2022-10-03T01:04:58;101188.00;;;10.97;67.42
46223;BME280;31943;51.410;7.564;2022-10-03T01:07:42;101193.22;;;10.97;67.33
46223;BME280;31943;51.410;7.564;2022-10-03T01:10:16;101184.41;;;10.93;67.44
46223;BME280;31943;51.410;7.564;2022-10-03T01:12:55;101195.72;;;10.92;67.15
46223;BME280;31943;51.410;7.564;2022-10-03T01:15:29;101195.69;;;10.91;67.14
46223;BME280;31943;51.410;7.564;2022-10-03T01:18:17;101199.25;;;10.94;67.28
46223;BME280;31943;51.410;7.564;2022-10-03T01:20:53;101199.25;;;10.94;67.52
46223;BME280;31943;51.410;7.564;2022-10-03T01:23:37;101202.78;;;10.96;67.17
46223;BME280;31943;51.410;7.564;2022-10-03T01:26:21;101198.47;;;10.98;67.62
46223;BME280;31943;51.410;7.564;2022-10-03T01:28:57;101198.53;;;11.00;67.74
46223;BME280;31943;51.410;7.564;2022-10-03T01:31:32;101197.63;;;10.99;67.81
46223;BME280;31943;51.410;7.564;2022-10-03T01:34:03;101197.66;;;11.01;67.75
46223;BME280;31943;51.410;7.564;2022-10-03T01:36:38;101201.19;;;11.03;67.83
46223;BME280;31943;51.410;7.564;2022-10-03T01:39:07;101202.09;;;11.05;67.88
46223;BME280;31943;51.410;7.564;2022-10-03T01:41:43;101203.84;;;11.04;68.12
46223;BME280;31943;51.410;7.564;2022-10-03T01:44:18;101198.56;;;11.03;68.44
46223;BME280;31943;51.410;7.564;2022-10-03T01:46:49;101204.72;;;11.05;68.80
46223;BME280;31943;51.410;7.564;2022-10-03T01:49:23;101200.41;;;11.05;68.73
46223;BME280;31943;51.410;7.564;2022-10-03T01:51:58;101199.44;;;11.02;68.57
46223;BME280;31943;51.410;7.564;2022-10-03T01:54:31;101197.66;;;11.01;68.83
46223;BME280;31943;51.410;7.564;2022-10-03T01:57:03;101197.66;;;11.01;69.01
46223;BME280;31943;51.410;7.564;2022-10-03T01:59:41;101199.44;;;11.02;69.07
46223;BME280;31943;51.410;7.564;2022-10-03T02:02:15;101203.81;;;11.03;68.76
46223;BME280;31943;51.410;7.564;2022-10-03T02:04:47;101206.41;;;11.03;69.11
46223;BME280;31943;51.410;7.564;2022-10-03T02:07:22;101209.06;;;11.04;69.07
46223;BME280;31943;51.410;7.564;2022-10-03T02:09:59;101203.94;;;11.07;69.06
46223;BME280;31943;51.410;7.564;2022-10-03T02:12:31;101214.38;;;11.09;69.37
46223;BME280;31943;51.410;7.564;2022-10-03T02:15:01;101215.25;;;11.08;69.17
46223;BME280;31943;51.410;7.564;2022-10-03T02:17:42;101223.13;;;11.10;69.36
46223;BME280;31943;51.410;7.564;2022-10-03T02:20:17;101226.56;;;11.08;69.58
46223;BME280;31943;51.410;7.564;2022-10-03T02:22:49;101224.75;;;11.04;69.85
46223;BME280;31943;51.410;7.564;2022-10-03T02:25:35;101227.44;;;11.07;69.99
46223;BME280;31943;51.410;7.564;2022-10-03T02:28:27;101224.00;;;11.10;69.76
46223;BME280;31943;51.410;7.564;2022-10-03T02:31:20;101230.16;;;11.12;69.98
46223;BME280;31943;51.410;7.564;2022-10-03T02:34:14;101228.41;;;11.13;69.60
46223;BME280;31943;51.410;7.564;2022-10-03T02:37:06;101234.50;;;11.13;69.55
46223;BME280;31943;51.410;7.564;2022-10-03T02:40:07;101237.09;;;11.12;69.74
46223;BME280;31943;51.410;7.564;2022-10-03T02:42:46;101237.94;;;11.11;69.56
46223;BME280;31943;51.410;7.564;2022-10-03T02:45:49;101239.72;;;11.13;69.37
46223;BME280;31943;51.410;7.564;2022-10-03T02:48:54;101243.22;;;11.12;69.14
46223;BME280;31943;51.410;7.564;2022-10-03T02:52:03;101244.03;;;11.10;68.97
46223;BME280;31943;51.410;7.564;2022-10-03T02:54:54;101247.38;;;11.04;69.16
46223;BME280;31943;51.410;7.564;2022-10-03T03:00:35;101246.44;;;11.02;69.40
46223;BME280;31943;51.410;7.564;2022-10-03T03:03:42;101245.44;;;10.97;69.55
46223;BME280;31943;51.410;7.564;2022-10-03T03:06:50;101248.88;;;10.94;69.40
46223;BME280;31943;51.410;7.564;2022-10-03T03:09:44;101254.00;;;10.91;69.22
46223;BME280;31943;51.410;7.564;2022-10-03T03:18:17;101255.63;;;10.86;69.36
46223;BME280;31943;51.410;7.564;2022-10-03T03:21:00;101252.13;;;10.85;69.14
46223;BME280;31943;51.410;7.564;2022-10-03T03:23:43;101262.50;;;10.82;68.53
46223;BME280;31943;51.410;7.564;2022-10-03T03:26:26;101253.75;;;10.80;68.46
46223;BME280;31943;51.410;7.564;2022-10-03T03:29:04;101258.00;;;10.77;68.52
46223;BME280;31943;51.410;7.564;2022-10-03T03:31:36;101258.84;;;10.76;68.57
46223;BME280;31943;51.410;7.564;2022-10-03T03:34:13;101254.47;;;10.75;68.41
46223;BME280;31943;51.410;7.564;2022-10-03T03:36:49;101259.66;;;10.73;68.24
46223;BME280;31943;51.410;7.564;2022-10-03T03:39:28;101256.13;;;10.71;68.25
46223;BME280;31943;51.410;7.564;2022-10-03T03:42:08;101259.56;;;10.68;68.00
46223;BME280;31943;51.410;7.564;2022-10-03T03:44:46;101265.59;;;10.67;68.12
46223;BME280;31943;51.410;7.564;2022-10-03T03:47:33;101263.84;;;10.66;68.14
46223;BME280;31943;51.410;7.564;2022-10-03T03:50:21;101255.97;;;10.65;68.08
46223;BME280;31943;51.410;7.564;2022-10-03T03:53:05;101263.81;;;10.65;68.03
46223;BME280;31943;51.410;7.564;2022-10-03T03:55:54;101262.06;;;10.65;67.87
46223;BME280;31943;51.410;7.564;2022-10-03T03:58:33;101261.97;;;10.61;67.92
46223;BME280;31943;51.410;7.564;2022-10-03T04:01:40;101269.75;;;10.59;67.93
46223;BME280;31943;51.410;7.564;2022-10-03T04:04:22;101267.91;;;10.55;67.88
46223;BME280;31943;51.410;7.564;2022-10-03T04:06:56;101260.88;;;10.53;68.20
46223;BME280;31943;51.410;7.564;2022-10-03T04:09:45;101262.59;;;10.52;68.42
46223;BME280;31943;51.410;7.564;2022-10-03T04:12:22;101274.75;;;10.52;68.10
46223;BME280;31943;51.410;7.564;2022-10-03T04:15:07;101266.09;;;10.53;68.20
46223;BME280;31943;51.410;7.564;2022-10-03T04:17:50;101271.31;;;10.53;68.38
46223;BME280;31943;51.410;7.564;2022-10-03T04:20:34;101274.81;;;10.53;68.16
46223;BME280;31943;51.410;7.564;2022-10-03T04:23:14;101274.75;;;10.52;68.13
46223;BME280;31943;51.410;7.564;2022-10-03T04:25:57;101285.28;;;10.55;68.56
46223;BME280;31943;51.410;7.564;2022-10-03T04:28:51;101288.78;;;10.55;68.50
46223;BME280;31943;51.410;7.564;2022-10-03T04:31:29;101290.50;;;10.55;68.77
46223;BME280;31943;51.410;7.564;2022-10-03T04:34:08;101288.81;;;10.57;69.05
46223;BME280;31943;51.410;7.564;2022-10-03T04:39:49;101285.41;;;10.59;69.16
46223;BME280;31943;51.410;7.564;2022-10-03T04:42:26;101286.28;;;10.60;69.17
46223;BME280;31943;51.410;7.564;2022-10-03T04:45:12;101281.97;;;10.62;69.10
46223;BME280;31943;51.410;7.564;2022-10-03T04:47:45;101287.19;;;10.62;69.37
46223;BME280;31943;51.410;7.564;2022-10-03T04:50:24;101289.91;;;10.65;69.32
46223;BME280;31943;51.410;7.564;2022-10-03T04:53:03;101288.16;;;10.65;69.32
46223;BME280;31943;51.410;7.564;2022-10-03T04:55:39;101285.59;;;10.67;69.69
46223;BME280;31943;51.410;7.564;2022-10-03T04:58:16;101289.13;;;10.69;69.30
46223;BME280;31943;51.410;7.564;2022-10-03T05:00:56;101272.59;;;10.68;69.41
46223;BME280;31943;51.410;7.564;2022-10-03T05:03:33;101287.44;;;10.71;69.33
46223;BME280;31943;51.410;7.564;2022-10-03T05:06:08;101284.84;;;10.71;69.82
46223;BME280;31943;51.410;7.564;2022-10-03T05:08:48;101293.59;;;10.73;69.64
46223;BME280;31943;51.410;7.564;2022-10-03T05:11:19;101290.09;;;10.73;69.76
46223;BME280;31943;51.410;7.564;2022-10-03T05:13:58;101291.84;;;10.74;69.69
46223;BME280;31943;51.410;7.564;2022-10-03T05:16:36;101289.28;;;10.75;69.76
46223;BME280;31943;51.410;7.564;2022-10-03T05:19:18;101295.38;;;10.76;69.46
46223;BME280;31943;51.410;7.564;2022-10-03T05:24:37;101295.38;;;10.76;69.84
46223;BME280;31943;51.410;7.564;2022-10-03T05:27:13;101302.44;;;10.78;70.33
46223;BME280;31943;51.410;7.564;2022-10-03T05:29:50;101298.91;;;10.78;70.46
46223;BME280;31943;51.410;7.564;2022-10-03T05:32:29;101301.69;;;10.82;70.32
46223;BME280;31943;51.410;7.564;2022-10-03T05:35:23;101300.81;;;10.83;70.53
46223;BME280;31943;51.410;7.564;2022-10-03T05:38:21;101304.41;;;10.87;70.37
46223;BME280;31943;51.410;7.564;2022-10-03T05:41:01;101312.19;;;10.85;70.34
46223;BME280;31943;51.410;7.564;2022-10-03T05:43:43;101306.97;;;10.85;70.36
46223;BME280;31943;51.410;7.564;2022-10-03T05:46:20;101304.34;;;10.85;70.42
46223;BME280;31943;51.410;7.564;2022-10-03T05:48:56;101306.19;;;10.89;70.53
46223;BME280;31943;51.410;7.564;2022-10-03T05:51:43;101301.00;;;10.91;70.20
46223;BME280;31943;51.410;7.564;2022-10-03T06:00:18;101313.31;;;10.95;70.51
46223;BME280;31943;51.410;7.564;2022-10-03T06:03:17;101316.72;;;10.93;70.47
46223;BME280;31943;51.410;7.564;2022-10-03T06:05:59;101321.84;;;10.89;70.50
46223;BME280;31943;51.410;7.564;2022-10-03T06:11:50;101325.38;;;10.92;70.92
46223;BME280;31943;51.410;7.564;2022-10-03T06:14:35;101332.50;;;10.96;70.70
46223;BME280;31943;51.410;7.564;2022-10-03T06:17:23;101329.06;;;10.98;70.83
46223;BME280;31943;51.410;7.564;2022-10-03T06:19:55;101334.34;;;11.01;70.71
46223;BME280;31943;51.410;7.564;2022-10-03T06:23:01;101335.31;;;11.05;70.48
46223;BME280;31943;51.410;7.564;2022-10-03T06:29:12;101345.84;;;11.08;70.46
46223;BME280;31943;51.410;7.564;2022-10-03T06:32:20;101342.47;;;11.12;70.53
46223;BME280;31943;51.410;7.564;2022-10-03T06:35:13;101351.22;;;11.14;70.47
46223;BME280;31943;51.410;7.564;2022-10-03T06:41:14;101342.72;;;11.21;70.31
46223;BME280;31943;51.410;7.564;2022-10-03T06:43:55;101346.25;;;11.23;70.23
46223;BME280;31943;51.410;7.564;2022-10-03T06:46:52;101341.13;;;11.28;70.26
46223;BME280;31943;51.410;7.564;2022-10-03T06:49:39;101348.19;;;11.32;70.36
46223;BME280;31943;51.410;7.564;2022-10-03T06:52:16;101354.34;;;11.34;70.00
46223;BME280;31943;51.410;7.564;2022-10-03T06:55:10;101340.44;;;11.37;70.25
46223;BME280;31943;51.410;7.564;2022-10-03T07:00:49;101344.16;;;11.46;70.20
46223;BME280;31943;51.410;7.564;2022-10-03T07:03:40;101344.34;;;11.53;70.12
46223;BME280;31943;51.410;7.564;2022-10-03T07:06:27;101347.81;;;11.53;70.48
46223;BME280;31943;51.410;7.564;2022-10-03T07:15:16;101359.13;;;11.52;70.66
46223;BME280;31943;51.410;7.564;2022-10-03T07:18:14;101363.47;;;11.52;71.00
46223;BME280;31943;51.410;7.564;2022-10-03T07:23:52;101366.94;;;11.51;71.05
46223;BME280;31943;51.410;7.564;2022-10-03T07:29:23;101358.25;;;11.52;70.72
46223;BME280;31943;51.410;7.564;2022-10-03T07:32:10;101370.53;;;11.56;71.21
46223;BME280;31943;51.410;7.564;2022-10-03T07:38:05;101366.38;;;11.64;71.32
46223;BME280;31943;51.410;7.564;2022-10-03T07:40:58;101380.44;;;11.69;71.47
46223;BME280;31943;51.410;7.564;2022-10-03T07:43:48;101381.44;;;11.74;71.56
46223;BME280;31943;51.410;7.564;2022-10-03T07:46:41;101385.00;;;11.78;71.67
46223;BME280;31943;51.410;7.564;2022-10-03T07:49:33;101386.91;;;11.85;71.95
46223;BME280;31943;51.410;7.564;2022-10-03T08:01:34;101399.50;;;12.00;72.22
46223;BME280;31943;51.410;7.564;2022-10-03T08:07:27;101393.72;;;12.15;72.18
46223;BME280;31943;51.410;7.564;2022-10-03T08:10:11;101402.63;;;12.24;71.85
46223;BME280;31943;51.410;7.564;2022-10-03T08:12:55;101402.81;;;12.32;71.80
46223;BME280;31943;51.410;7.564;2022-10-03T08:15:29;101401.22;;;12.39;71.86
46223;BME280;31943;51.410;7.564;2022-10-03T08:18:31;101404.91;;;12.49;71.55
46223;BME280;31943;51.410;7.564;2022-10-03T08:21:15;101402.38;;;12.53;71.73
46223;BME280;31943;51.410;7.564;2022-10-03T08:24:11;101409.63;;;12.66;71.49
46223;BME280;31943;51.410;7.564;2022-10-03T08:27:09;101407.22;;;12.77;71.53
46223;BME280;31943;51.410;7.564;2022-10-03T08:32:46;101403.91;;;12.88;71.14
46223;BME280;31943;51.410;7.564;2022-10-03T08:35:27;101403.25;;;12.98;71.09
46223;BME280;31943;51.410;7.564;2022-10-03T08:38:19;101412.28;;;13.14;70.75
46223;BME280;31943;51.410;7.564;2022-10-03T08:44:29;101419.66;;;13.35;70.13
46223;BME280;31943;51.410;7.564;2022-10-03T08:50:30;101417.34;;;13.53;70.03
46223;BME280;31943;51.410;7.564;2022-10-03T08:53:32;101425.25;;;13.56;69.71
46223;BME280;31943;51.410;7.564;2022-10-03T08:56:05;101421.19;;;13.75;69.40
46223;BME280;31943;51.410;7.564;2022-10-03T08:59:03;101420.00;;;14.13;68.63
46223;BME280;31943;51.410;7.564;2022-10-03T09:02:26;101418.50;;;14.30;67.53
46223;BME280;31943;51.410;7.564;2022-10-03T09:05:21;101421.94;;;14.26;67.91
46223;BME280;31943;51.410;7.564;2022-10-03T09:11:26;101419.31;;;14.26;67.78
46223;BME280;31943;51.410;7.564;2022-10-03T09:20:45;101416.16;;;14.52;66.86
46223;BME280;31943;51.410;7.564;2022-10-03T09:23:38;101424.00;;;14.49;66.79
46223;BME280;31943;51.410;7.564;2022-10-03T09:26:38;101411.59;;;14.37;66.57
46223;BME280;31943;51.410;7.564;2022-10-03T09:29:23;101414.22;;;14.37;67.11
46223;BME280;31943;51.410;7.564;2022-10-03T09:32:18;101412.50;;;14.39;66.98
46223;BME280;31943;51.410;7.564;2022-10-03T09:35:26;101420.44;;;14.43;67.14
46223;BME280;31943;51.410;7.564;2022-10-03T09:38:33;101416.06;;;14.46;67.13
46223;BME280;31943;51.410;7.564;2022-10-03T09:41:29;101418.78;;;14.52;66.07
46223;BME280;31943;51.410;7.564;2022-10-03T09:44:28;101418.03;;;14.59;65.95
46223;BME280;31943;51.410;7.564;2022-10-03T09:47:22;101412.84;;;14.65;65.88
46223;BME280;31943;51.410;7.564;2022-10-03T09:50:31;101414.00;;;14.89;65.35
46223;BME280;31943;51.410;7.564;2022-10-03T09:53:26;101402.13;;;15.29;63.70
46223;BME280;31943;51.410;7.564;2022-10-03T09:56:34;101399.75;;;15.58;61.97
46223;BME280;31943;51.410;7.564;2022-10-03T09:59:27;101395.53;;;15.74;61.57
46223;BME280;31943;51.410;7.564;2022-10-03T10:02:12;101396.22;;;15.58;61.96
46223;BME280;31943;51.410;7.564;2022-10-03T10:04:55;101402.25;;;15.46;62.41
46223;BME280;31943;51.410;7.564;2022-10-03T10:08:06;101395.34;;;15.57;61.47
46223;BME280;31943;51.410;7.564;2022-10-03T10:11:18;101393.69;;;15.72;58.95
46223;BME280;31943;51.410;7.564;2022-10-03T10:14:16;101397.88;;;15.43;58.99
46223;BME280;31943;51.410;7.564;2022-10-03T10:17:11;101408.34;;;15.37;59.08
46223;BME280;31943;51.410;7.564;2022-10-03T10:19:54;101401.25;;;15.27;59.96
46223;BME280;31943;51.410;7.564;2022-10-03T10:25:45;101399.41;;;15.20;60.76
46223;BME280;31943;51.410;7.564;2022-10-03T10:28:34;101402.13;;;15.29;61.12
46223;BME280;31943;51.410;7.564;2022-10-03T10:31:39;101397.09;;;15.57;59.83
46223;BME280;31943;51.410;7.564;2022-10-03T10:35:14;101398.97;;;15.70;58.24
46223;BME280;31943;51.410;7.564;2022-10-03T10:41:39;101388.09;;;15.27;58.56
46223;BME280;31943;51.410;7.564;2022-10-03T10:44:45;101389.75;;;15.16;57.82
46223;BME280;31943;51.410;7.564;2022-10-03T10:50:36;101390.66;;;15.22;59.16
46223;BME280;31943;51.410;7.564;2022-10-03T10:57:03;101378.03;;;15.84;58.62
46223;BME280;31943;51.410;7.564;2022-10-03T10:59:59;101375.56;;;16.16;57.91
46223;BME280;31943;51.410;7.564;2022-10-03T11:18:26;101361.84;;;17.10;52.25
46223;BME280;31943;51.410;7.564;2022-10-03T11:21:36;101370.63;;;17.06;52.56
46223;BME280;31943;51.410;7.564;2022-10-03T11:30:18;101368.00;;;17.07;54.04
46223;BME280;31943;51.410;7.564;2022-10-03T11:36:32;101364.44;;;16.99;54.33
46223;BME280;31943;51.410;7.564;2022-10-03T11:39:03;101361.78;;;16.91;54.80
46223;BME280;31943;51.410;7.564;2022-10-03T11:41:39;101356.50;;;16.84;54.73
46223;BME280;31943;51.410;7.564;2022-10-03T11:44:24;101353.91;;;16.88;53.80
46223;BME280;31943;51.410;7.564;2022-10-03T11:47:16;101358.22;;;16.77;52.90
46223;BME280;31943;51.410;7.564;2022-10-03T11:50:01;101353.00;;;16.85;53.37
46223;BME280;31943;51.410;7.564;2022-10-03T11:52:34;101356.56;;;16.96;53.62
46223;BME280;31943;51.410;7.564;2022-10-03T11:55:24;101360.06;;;17.36;52.51
46223;BME280;31943;51.410;7.564;2022-10-03T11:58:03;101355.69;;;17.42;51.19
46223;BME280;31943;51.410;7.564;2022-10-03T12:00:35;101349.53;;;17.56;51.52
46223;BME280;31943;51.410;7.564;2022-10-03T12:03:15;101356.53;;;17.64;50.65
46223;BME280;31943;51.410;7.564;2022-10-03T12:05:49;101351.28;;;17.62;50.99
46223;BME280;31943;51.410;7.564;2022-10-03T12:08:34;101350.38;;;17.88;51.12
46223;BME280;31943;51.410;7.564;2022-10-03T12:11:05;101345.06;;;18.02;49.70
46223;BME280;31943;51.410;7.564;2022-10-03T12:13:36;101349.44;;;18.01;49.92
46223;BME280;31943;51.410;7.564;2022-10-03T12:16:08;101338.84;;;18.10;49.61
46223;BME280;31943;51.410;7.564;2022-10-03T12:18:51;101343.22;;;18.24;48.98
46223;BME280;31943;51.410;7.564;2022-10-03T12:21:23;101334.38;;;18.26;48.53
46223;BME280;31943;51.410;7.564;2022-10-03T12:27:05;101332.69;;;18.19;49.56
46223;BME280;31943;51.410;7.564;2022-10-03T12:29:39;101331.78;;;18.22;50.06
46223;BME280;31943;51.410;7.564;2022-10-03T12:32:17;101335.31;;;18.19;48.98
46223;BME280;31943;51.410;7.564;2022-10-03T12:34:51;101336.19;;;18.18;48.65
46223;BME280;31943;51.410;7.564;2022-10-03T12:37:34;101337.94;;;18.22;49.31
46223;BME280;31943;51.410;7.564;2022-10-03T12:40:03;101343.19;;;18.30;49.49
46223;BME280;31943;51.410;7.564;2022-10-03T12:42:34;101334.41;;;18.18;49.35
46223;BME280;31943;51.410;7.564;2022-10-03T12:45:07;101330.03;;;18.16;49.70
46223;BME280;31943;51.410;7.564;2022-10-03T12:47:47;101332.63;;;18.28;49.10
46223;BME280;31943;51.410;7.564;2022-10-03T12:50:22;101333.44;;;18.43;49.21
46223;BME280;31943;51.410;7.564;2022-10-03T12:53:01;101328.94;;;18.57;48.83
46223;BME280;31943;51.410;7.564;2022-10-03T12:55:46;101328.03;;;18.61;46.84
46223;BME280;31943;51.410;7.564;2022-10-03T12:58:30;101329.94;;;18.37;47.36
46223;BME280;31943;51.410;7.564;2022-10-03T13:01:20;101331.78;;;18.22;48.27
46223;BME280;31943;51.410;7.564;2022-10-03T13:03:52;101327.38;;;18.13;48.36
46223;BME280;31943;51.410;7.564;2022-10-03T13:06:41;101333.50;;;18.26;48.72
46223;BME280;31943;51.410;7.564;2022-10-03T13:09:15;101330.81;;;18.40;48.07
46223;BME280;31943;51.410;7.564;2022-10-03T13:11:53;101338.72;;;18.36;47.74
46223;BME280;31943;51.410;7.564;2022-10-03T13:14:33;101335.28;;;18.21;47.84
46223;BME280;31943;51.410;7.564;2022-10-03T13:17:15;101338.88;;;18.04;48.46
46223;BME280;31943;51.410;7.564;2022-10-03T13:19:52;101327.47;;;17.81;48.97
46223;BME280;31943;51.410;7.564;2022-10-03T13:22:29;101326.59;;;17.78;49.14
46223;BME280;31943;51.410;7.564;2022-10-03T13:25:02;101331.91;;;17.72;48.67
46223;BME280;31943;51.410;7.564;2022-10-03T13:27:35;101334.53;;;17.68;47.43
46223;BME280;31943;51.410;7.564;2022-10-03T13:30:12;101339.78;;;17.77;46.12
46223;BME280;31943;51.410;7.564;2022-10-03T13:32:44;101335.41;;;17.82;46.91
46223;BME280;31943;51.410;7.564;2022-10-03T13:35:26;101329.25;;;17.80;46.13
46223;BME280;31943;51.410;7.564;2022-10-03T13:38:15;101332.75;;;17.70;46.30
46223;BME280;31943;51.410;7.564;2022-10-03T13:40:47;101326.63;;;17.69;46.41
46223;BME280;31943;51.410;7.564;2022-10-03T13:43:20;101326.63;;;17.74;46.70
46223;BME280;31943;51.410;7.564;2022-10-03T13:45:50;101316.94;;;17.88;46.80
46223;BME280;31943;51.410;7.564;2022-10-03T13:48:22;101329.25;;;17.95;46.86
46223;BME280;31943;51.410;7.564;2022-10-03T13:50:52;101317.75;;;18.04;47.11
46223;BME280;31943;51.410;7.564;2022-10-03T13:53:30;101316.84;;;18.11;47.65
46223;BME280;31943;51.410;7.564;2022-10-03T13:56:02;101322.16;;;18.01;46.88
46223;BME280;31943;51.410;7.564;2022-10-03T13:58:44;101319.56;;;17.82;47.23
46223;BME280;31943;51.410;7.564;2022-10-03T14:01:27;101319.59;;;17.61;46.77
46223;BME280;31943;51.410;7.564;2022-10-03T14:06:46;101314.34;;;17.27;48.56
46223;BME280;31943;51.410;7.564;2022-10-03T14:09:36;101308.22;;;17.15;48.83
46223;BME280;31943;51.410;7.564;2022-10-03T14:12:13;101317.91;;;17.13;49.01
46223;BME280;31943;51.410;7.564;2022-10-03T14:15:09;101305.56;;;17.25;48.33
46223;BME280;31943;51.410;7.564;2022-10-03T14:17:47;101308.19;;;17.34;48.56
46223;BME280;31943;51.410;7.564;2022-10-03T14:20:23;101303.81;;;17.31;48.40
46223;BME280;31943;51.410;7.564;2022-10-03T14:23:12;101299.41;;;17.29;48.59
46223;BME280;31943;51.410;7.564;2022-10-03T14:25:44;101302.03;;;17.30;49.06
46223;BME280;31943;51.410;7.564;2022-10-03T14:28:17;101298.53;;;17.36;48.94
46223;BME280;31943;51.410;7.564;2022-10-03T14:30:52;101295.00;;;17.32;49.67
46223;BME280;31943;51.410;7.564;2022-10-03T14:33:29;101299.41;;;17.26;49.00
46223;BME280;31943;51.410;7.564;2022-10-03T14:36:07;101296.78;;;17.10;49.80
46223;BME280;31943;51.410;7.564;2022-10-03T14:39:04;101295.03;;;17.05;49.51
46223;BME280;31943;51.410;7.564;2022-10-03T14:41:42;101295.03;;;17.06;49.14
46223;BME280;31943;51.410;7.564;2022-10-03T14:44:10;101287.13;;;17.00;49.29
46223;BME280;31943;51.410;7.564;2022-10-03T14:46:42;101291.53;;;16.99;49.81
46223;BME280;31943;51.410;7.564;2022-10-03T14:49:18;101290.63;;;17.08;49.41
46223;BME280;31943;51.410;7.564;2022-10-03T14:51:49;101283.59;;;17.09;48.43
46223;BME280;31943;51.410;7.564;2022-10-03T14:54:19;101288.00;;;17.00;49.28
46223;BME280;31943;51.410;7.564;2022-10-03T14:56:47;101293.28;;;16.97;50.11
46223;BME280;31943;51.410;7.564;2022-10-03T14:59:18;101284.47;;;16.97;49.93
46223;BME280;31943;51.410;7.564;2022-10-03T15:01:49;101278.34;;;16.92;50.87
46223;BME280;31943;51.410;7.564;2022-10-03T15:04:28;101280.06;;;16.85;50.39
46223;BME280;31943;51.410;7.564;2022-10-03T15:07:00;101281.84;;;16.86;50.61
46223;BME280;31943;51.410;7.564;2022-10-03T15:09:31;101278.31;;;16.89;50.84
46223;BME280;31943;51.410;7.564;2022-10-03T15:12:05;101284.47;;;16.92;50.92
46223;BME280;31943;51.410;7.564;2022-10-03T15:14:36;101285.34;;;16.99;50.74
46223;BME280;31943;51.410;7.564;2022-10-03T15:17:16;101273.91;;;17.12;51.01
46223;BME280;31943;51.410;7.564;2022-10-03T15:19:48;101276.56;;;17.20;50.95
46223;BME280;31943;51.410;7.564;2022-10-03T15:22:27;101268.63;;;17.18;51.05
46223;BME280;31943;51.410;7.564;2022-10-03T15:24:55;101265.13;;;17.16;50.89
46223;BME280;31943;51.410;7.564;2022-10-03T15:27:25;101266.00;;;17.17;51.15
46223;BME280;31943;51.410;7.564;2022-10-03T15:29:54;101261.63;;;17.14;51.11
46223;BME280;31943;51.410;7.564;2022-10-03T15:32:24;101262.50;;;17.10;51.15
46223;BME280;31943;51.410;7.564;2022-10-03T15:34:57;101262.50;;;17.03;51.08
46223;BME280;31943;51.410;7.564;2022-10-03T15:37:28;101256.34;;;16.99;51.39
46223;BME280;31943;51.410;7.564;2022-10-03T15:39:59;101253.72;;;17.04;51.43
46223;BME280;31943;51.410;7.564;2022-10-03T15:42:27;101242.28;;;17.08;51.43
46223;BME280;31943;51.410;7.564;2022-10-03T15:44:57;101245.81;;;17.10;52.07
46223;BME280;31943;51.410;7.564;2022-10-03T15:47:27;101239.63;;;17.11;52.42
46223;BME280;31943;51.410;7.564;2022-10-03T15:50:01;101231.75;;;17.15;52.10
46223;BME280;31943;51.410;7.564;2022-10-03T15:52:33;101237.00;;;17.15;52.87
46223;BME280;31943;51.410;7.564;2022-10-03T15:55:02;101232.59;;;17.13;54.93
46223;BME280;31943;51.410;7.564;2022-10-03T15:57:33;101230.84;;;17.12;55.25
46223;BME280;31943;51.410;7.564;2022-10-03T16:00:02;101230.88;;;17.07;55.03
46223;BME280;31943;51.410;7.564;2022-10-03T16:02:32;101224.69;;;17.07;55.79
46223;BME280;31943;51.410;7.564;2022-10-03T16:05:03;101229.97;;;17.05;56.25
46223;BME280;31943;51.410;7.564;2022-10-03T16:07:40;101229.97;;;17.00;56.78
46223;BME280;31943;51.410;7.564;2022-10-03T16:10:17;101231.75;;;16.94;57.27
46223;BME280;31943;51.410;7.564;2022-10-03T16:12:54;101227.34;;;16.87;57.59
46223;BME280;31943;51.410;7.564;2022-10-03T16:15:26;101221.19;;;16.78;58.16
46223;BME280;31943;51.410;7.564;2022-10-03T16:17:56;101226.44;;;16.71;58.83